Time;durP1;ratioP1;P1;durP2;ratioP2;P2;SDS_P1;SDS_P2;PMS_P1;PMS_P2;Temp;Humidity;BMP_temperature;BMP_pressure;BME280_temperature;BME280_humidity;BME280_pressure;Samples;Min_cycle;Max_cycle;Signal;HPM_P1;HPM_P2
2022/09/16 00:01:51;;;;;;;;;6.33;5.00;;;;;17.18;78.86;100602.22;4852900;29;45727;-81
2022/09/16 00:04:16;;;;;;;;;6.67;6.00;;;;;17.12;79.41;100607.69;4869206;29;45423;-82
2022/09/16 00:06:42;;;;;;;;;5.00;5.00;;;;;17.06;79.93;100608.66;4852431;29;47300;-80
2022/09/16 00:09:09;;;;;;;;;7.00;6.00;;;;;17.05;80.09;100611.38;4868429;29;45406;-82
2022/09/16 00:11:35;;;;;;;;;4.00;4.00;;;;;17.00;80.85;100612.31;4869101;29;44886;-81
2022/09/16 00:14:01;;;;;;;;;7.00;7.00;;;;;17.00;81.36;100617.69;4852861;29;44886;-81
2022/09/16 00:16:28;;;;;;;;;4.67;4.67;;;;;16.98;81.21;100615.94;4868500;29;45391;-81
2022/09/16 00:18:56;;;;;;;;;2.67;2.67;;;;;16.95;82.87;100618.69;4868219;29;45415;-81
2022/09/16 00:21:22;;;;;;;;;6.00;6.00;;;;;16.97;82.20;100631.19;4868546;29;45398;-81
2022/09/16 00:23:48;;;;;;;;;4.00;4.00;;;;;16.96;84.72;100629.41;4867632;29;45609;-81
2022/09/16 00:26:13;;;;;;;;;5.67;5.00;;;;;16.88;82.61;100620.56;4867947;29;46716;-82
2022/09/16 00:28:39;;;;;;;;;5.00;5.00;;;;;16.94;83.18;100631.22;4869010;29;45569;-81
2022/09/16 00:31:04;;;;;;;;;6.00;6.00;;;;;16.93;83.26;100624.09;4871381;29;45415;-81
2022/09/16 00:33:30;;;;;;;;;6.00;6.00;;;;;16.91;84.09;100620.53;4855193;29;44937;-81
2022/09/16 00:36:08;;;;;;;;;6.00;6.00;;;;;16.95;83.43;100622.28;4856529;29;48300;-81
2022/09/16 00:38:33;;;;;;;;;6.33;6.33;;;;;16.96;83.10;100626.72;4871007;29;44984;-81
2022/09/16 00:40:59;;;;;;;;;6.00;6.00;;;;;16.92;84.67;100627.66;4872871;29;44801;-81
2022/09/16 00:43:25;;;;;;;;;8.33;6.67;;;;;16.90;84.80;100624.13;4877819;29;45362;-81
2022/09/16 00:45:58;;;;;;;;;6.67;6.67;;;;;16.84;85.08;100621.50;4877716;29;45354;-82
2022/09/16 00:48:26;;;;;;;;;6.00;6.00;;;;;16.82;85.49;100623.34;4877169;29;45396;-81
2022/09/16 00:50:59;;;;;;;;;8.00;7.00;;;;;16.86;85.78;100626.88;4877846;29;45573;-82
2022/09/16 00:53:34;;;;;;;;;9.33;7.33;;;;;16.87;85.56;100615.25;4878038;29;45440;-82
2022/09/16 00:56:04;;;;;;;;;7.67;6.67;;;;;16.88;87.05;100617.00;4858481;29;46951;-82
2022/09/16 00:59:16;;;;;;;;;9.33;7.00;;;;;16.87;86.79;100621.50;4874968;29;45474;-82
2022/09/16 01:01:48;;;;;;;;;8.67;7.33;;;;;16.87;86.55;100620.59;4873870;29;45493;-81
2022/09/16 01:04:21;;;;;;;;;7.00;7.00;;;;;16.86;86.96;100618.81;4877176;29;45697;-81
2022/09/16 01:06:48;;;;;;;;;4.00;4.00;;;;;16.82;87.74;100607.22;4874011;29;48399;-81
2022/09/16 01:09:14;;;;;;;;;7.33;6.33;;;;;16.82;87.58;100606.34;4873844;29;45391;-81
2022/09/16 01:11:39;;;;;;;;;6.00;6.00;;;;;16.84;87.59;100610.78;4874819;29;45778;-82
2022/09/16 01:17:05;;;;;;;;;9.00;7.67;;;;;16.88;87.77;100617.88;4875539;29;45340;-81
2022/09/16 01:20:20;;;;;;;;;8.00;7.67;;;;;16.88;87.69;100623.25;4874660;29;45502;-81
2022/09/16 01:22:59;;;;;;;;;7.33;7.33;;;;;16.86;87.82;100621.50;4874948;29;45491;-81
2022/09/16 01:25:28;;;;;;;;;6.67;6.67;;;;;16.86;87.96;100622.38;4874940;29;45473;-81
2022/09/16 01:28:41;;;;;;;;;8.33;6.00;;;;;16.87;88.08;100620.59;4874934;29;48124;-81
2022/09/16 01:31:26;;;;;;;;;9.00;9.00;;;;;16.87;88.05;100621.50;4866723;29;45501;-81
2022/09/16 01:34:05;;;;;;;;;8.00;6.67;;;;;16.87;88.26;100626.88;4873143;29;45507;-81
2022/09/16 01:36:58;;;;;;;;;8.00;8.00;;;;;16.87;88.44;100624.19;4873799;29;45798;-81
2022/09/16 01:39:48;;;;;;;;;8.00;8.00;;;;;16.85;88.39;100623.31;4874793;29;45402;-81
2022/09/16 01:43:05;;;;;;;;;10.67;10.67;;;;;16.82;88.93;100620.66;4873472;29;45473;-81
2022/09/16 01:45:37;;;;;;;;;7.67;7.67;;;;;16.80;89.66;100626.03;4835078;29;45416;-81
2022/09/16 01:48:05;;;;;;;;;9.00;9.00;;;;;16.77;89.25;100619.81;4837628;29;44874;-81
2022/09/16 01:50:40;;;;;;;;;9.33;8.67;;;;;16.75;89.71;100621.63;4836953;29;45459;-81
2022/09/16 01:53:14;;;;;;;;;8.67;8.67;;;;;16.70;90.80;100621.66;4832906;29;45496;-81
2022/09/16 01:55:53;;;;;;;;;8.00;7.00;;;;;16.65;90.83;100615.47;4832809;29;45422;-81
2022/09/16 01:58:32;;;;;;;;;7.33;7.00;;;;;16.63;91.17;100617.28;4835274;29;45461;-81
2022/09/16 02:01:09;;;;;;;;;7.67;6.67;;;;;16.59;92.16;100613.75;4836446;29;45611;-81
2022/09/16 02:03:39;;;;;;;;;8.00;8.00;;;;;16.59;92.45;100616.44;4835875;29;45382;-81
2022/09/16 02:06:09;;;;;;;;;5.67;5.67;;;;;16.54;92.47;100607.56;4836006;29;45400;-81
2022/09/16 02:08:44;;;;;;;;;9.67;8.00;;;;;16.57;92.75;100612.88;4836200;29;44925;-81
2022/09/16 02:11:13;;;;;;;;;7.33;7.00;;;;;16.47;93.24;100605.84;4834910;29;45481;-81
2022/09/16 02:13:44;;;;;;;;;6.33;6.33;;;;;16.53;93.19;100605.78;4835798;29;45683;-81
2022/09/16 02:16:15;;;;;;;;;6.00;5.00;;;;;16.52;93.52;100609.38;4820760;29;45412;-81
2022/09/16 02:18:45;;;;;;;;;8.00;8.00;;;;;16.49;93.80;100598.69;4836503;29;44988;-81
2022/09/16 02:21:15;;;;;;;;;5.67;5.67;;;;;16.53;94.21;100616.53;4842728;29;48065;-80
2022/09/16 02:23:45;;;;;;;;;12.00;8.00;;;;;16.48;94.22;100602.28;4856977;29;45423;-80
2022/09/16 02:26:16;;;;;;;;;8.33;7.33;;;;;16.44;94.72;100597.84;4857597;29;45417;-81
2022/09/16 02:28:45;;;;;;;;;9.00;8.00;;;;;16.45;94.61;100602.31;4875460;29;45464;-81
2022/09/16 02:31:13;;;;;;;;;8.00;8.00;;;;;16.41;95.43;100600.56;4874496;29;45295;-81
2022/09/16 02:33:49;;;;;;;;;9.67;8.00;;;;;16.33;96.47;100597.09;4874833;29;45418;-81
2022/09/16 02:36:20;;;;;;;;;10.00;9.67;;;;;16.35;97.11;100600.66;4873874;29;45434;-81
2022/09/16 02:38:54;;;;;;;;;10.00;7.00;;;;;16.24;97.33;100590.03;4858145;29;45324;-81
2022/09/16 02:41:20;;;;;;;;;7.33;7.00;;;;;16.34;97.69;100604.22;4855658;29;46941;-80
2022/09/16 02:43:45;;;;;;;;;7.33;7.00;;;;;16.31;97.89;100593.53;4872239;29;45498;-82
2022/09/16 02:46:20;;;;;;;;;8.33;8.33;;;;;16.34;98.02;100591.72;4872662;29;45429;-82
2022/09/16 02:48:55;;;;;;;;;9.00;9.00;;;;;16.30;97.87;100591.75;4856466;29;45337;-81
2022/09/16 02:51:26;;;;;;;;;7.33;7.00;;;;;16.32;98.19;100598.91;4855924;29;45189;-82
2022/09/16 02:54:01;;;;;;;;;8.67;7.33;;;;;16.28;98.54;100590.88;4873207;29;44869;-81
2022/09/16 02:56:33;;;;;;;;;8.00;8.00;;;;;16.30;99.00;100597.13;4873412;29;45465;-82
2022/09/16 02:59:07;;;;;;;;;7.67;7.67;;;;;16.25;99.59;100585.56;4873354;29;44764;-82
2022/09/16 03:01:44;;;;;;;;;9.33;9.33;;;;;16.17;99.61;100581.16;4870879;29;46330;-82
2022/09/16 03:04:13;;;;;;;;;7.00;7.00;;;;;16.16;100.00;100590.13;4871253;29;44882;-82
2022/09/16 03:06:39;;;;;;;;;10.00;9.00;;;;;16.13;100.00;100581.22;4871476;29;45456;-81
2022/09/16 03:09:08;;;;;;;;;10.67;8.33;;;;;16.15;100.00;100592.81;4871867;29;45443;-82
2022/09/16 03:11:58;;;;;;;;;9.33;9.33;;;;;16.13;100.00;100590.16;4873962;29;45462;-81
2022/09/16 03:14:43;;;;;;;;;10.33;9.00;;;;;16.12;100.00;100593.75;4869430;29;45425;-82
2022/09/16 03:17:35;;;;;;;;;7.00;7.00;;;;;16.12;100.00;100588.38;4869615;29;45348;-82
2022/09/16 03:20:07;;;;;;;;;7.33;7.33;;;;;16.08;100.00;100588.41;4870133;29;45886;-82
2022/09/16 03:22:53;;;;;;;;;6.67;6.33;;;;;16.04;100.00;100584.00;4868193;29;46998;-82
2022/09/16 03:25:28;;;;;;;;;7.00;6.00;;;;;16.07;100.00;100584.84;4869279;29;45498;-81
2022/09/16 03:28:11;;;;;;;;;8.33;8.00;;;;;16.02;100.00;100586.72;4869645;29;44849;-82
2022/09/16 03:31:02;;;;;;;;;8.33;7.00;;;;;16.02;100.00;100578.66;4868641;29;44864;-81
2022/09/16 03:33:36;;;;;;;;;7.33;7.33;;;;;15.99;100.00;100582.25;4869523;29;45107;-81
2022/09/16 03:36:04;;;;;;;;;8.00;7.00;;;;;15.99;100.00;100587.59;4870684;29;44777;-82
2022/09/16 03:38:34;;;;;;;;;8.00;7.00;;;;;15.95;100.00;100595.72;4870613;29;44872;-82
2022/09/16 03:41:02;;;;;;;;;10.00;7.00;;;;;15.90;100.00;100586.84;4870185;29;45411;-82
2022/09/16 03:43:27;;;;;;;;;5.33;5.00;;;;;15.86;100.00;100601.19;4868718;29;47809;-82
2022/09/16 03:45:53;;;;;;;;;5.33;5.33;;;;;15.77;100.00;100597.69;4869097;29;45388;-82
2022/09/16 03:48:18;;;;;;;;;9.33;9.33;;;;;15.75;100.00;100596.81;4870161;29;45408;-81
2022/09/16 03:50:44;;;;;;;;;9.00;9.00;;;;;15.75;100.00;100612.91;4870808;29;45447;-81
2022/09/16 03:53:10;;;;;;;;;9.33;8.67;;;;;15.72;100.00;100610.25;4870628;29;47042;-81
2022/09/16 03:55:35;;;;;;;;;9.00;8.67;;;;;15.70;100.00;100612.00;4870560;29;45423;-81
2022/09/16 03:58:00;;;;;;;;;6.00;5.33;;;;;15.65;100.00;100608.47;4872073;29;45320;-81
2022/09/16 04:00:28;;;;;;;;;9.00;8.00;;;;;15.58;100.00;100596.94;4870407;29;45589;-81
2022/09/16 04:02:53;;;;;;;;;10.33;8.00;;;;;15.58;100.00;100613.00;4870437;29;46983;-81
2022/09/16 04:05:18;;;;;;;;;14.33;12.33;;;;;15.46;100.00;100596.16;4871300;29;45388;-81
2022/09/16 04:07:44;;;;;;;;;11.00;10.33;;;;;15.48;100.00;100605.94;4871995;29;45486;-81
2022/09/16 04:10:11;;;;;;;;;9.33;9.33;;;;;15.35;100.00;100594.44;4870901;29;44762;-81
2022/09/16 04:12:36;;;;;;;;;12.67;10.67;;;;;15.30;100.00;100608.78;4868919;29;47047;-81
2022/09/16 04:15:02;;;;;;;;;11.33;11.00;;;;;15.23;100.00;100618.66;4867933;29;45399;-82
2022/09/16 04:17:30;;;;;;;;;8.67;8.67;;;;;15.19;100.00;100617.78;4868392;29;44886;-81
2022/09/16 04:19:56;;;;;;;;;15.00;10.67;;;;;15.13;100.00;100625.88;4870106;29;45750;-80
2022/09/16 04:22:21;;;;;;;;;12.00;12.00;;;;;15.10;100.00;100619.63;4872387;29;46110;-81
2022/09/16 04:24:48;;;;;;;;;10.33;9.67;;;;;15.07;100.00;100622.31;4871808;29;45656;-82
2022/09/16 04:27:13;;;;;;;;;13.00;11.33;;;;;15.02;100.00;100617.00;4871031;29;45505;-82
2022/09/16 04:29:38;;;;;;;;;12.33;11.00;;;;;15.04;100.00;100620.56;4869512;29;45399;-82
2022/09/16 04:32:04;;;;;;;;;12.00;8.00;;;;;15.03;100.00;100617.88;4869112;29;45552;-82
2022/09/16 04:34:31;;;;;;;;;10.67;10.67;;;;;15.07;100.00;100625.00;4867974;29;44838;-81
2022/09/16 04:36:57;;;;;;;;;11.00;11.00;;;;;15.07;100.00;100620.53;4853341;29;45523;-81
2022/09/16 04:39:22;;;;;;;;;6.67;5.00;;;;;15.11;100.00;100632.13;4870240;29;45432;-82
2022/09/16 04:41:48;;;;;;;;;15.67;13.00;;;;;15.10;100.00;100630.34;4868587;29;46708;-80
2022/09/16 04:44:14;;;;;;;;;13.00;11.00;;;;;15.09;100.00;100629.47;4870430;29;45456;-81
2022/09/16 04:46:39;;;;;;;;;8.67;6.67;;;;;15.15;100.00;100628.53;4854350;29;44837;-81
2022/09/16 04:49:06;;;;;;;;;13.67;8.67;;;;;15.13;100.00;100614.28;4869328;29;44853;-81
2022/09/16 04:51:32;;;;;;;;;17.67;11.67;;;;;15.06;100.00;100607.16;4869305;29;48788;-80
2022/09/16 04:53:59;;;;;;;;;12.00;10.00;;;;;15.16;100.00;100614.22;4870600;29;45582;-80
2022/09/16 04:56:27;;;;;;;;;11.33;9.00;;;;;15.13;100.00;100622.31;4871475;29;45499;-81
2022/09/16 04:58:56;;;;;;;;;12.00;10.00;;;;;15.07;100.00;100628.59;4870141;29;45446;-81
2022/09/16 05:01:37;;;;;;;;;11.00;10.00;;;;;15.04;100.00;100627.69;4853184;29;47152;-81
2022/09/16 05:04:05;;;;;;;;;9.67;9.67;;;;;15.05;100.00;100626.78;4871352;29;45431;-82
2022/09/16 05:06:33;;;;;;;;;7.33;7.33;;;;;15.06;100.00;100623.22;4855184;29;45506;-81
2022/09/16 05:09:00;;;;;;;;;7.33;7.33;;;;;15.13;100.00;100624.97;4873239;29;45092;-82
2022/09/16 05:12:17;;;;;;;;;10.67;8.00;;;;;15.17;100.00;100622.25;4872816;29;45559;-81
2022/09/16 05:14:49;;;;;;;;;11.00;9.00;;;;;15.21;100.00;100628.50;4873000;29;45445;-81
2022/09/16 05:17:15;;;;;;;;;8.33;7.33;;;;;15.19;100.00;100624.94;4873333;29;44902;-80
2022/09/16 05:19:40;;;;;;;;;13.67;12.00;;;;;15.14;100.00;100629.44;4870944;29;45543;-81
2022/09/16 05:22:06;;;;;;;;;9.67;9.67;;;;;15.15;100.00;100631.22;4855833;29;46557;-81
2022/09/16 05:25:18;;;;;;;;;10.67;9.33;;;;;15.13;100.00;100624.97;4872848;29;45531;-81
2022/09/16 05:27:43;;;;;;;;;12.00;12.00;;;;;15.11;100.00;100626.78;4872539;29;45473;-81
2022/09/16 05:30:09;;;;;;;;;9.00;9.00;;;;;15.14;100.00;100632.97;4873931;29;45569;-82
2022/09/16 05:32:35;;;;;;;;;11.00;11.00;;;;;15.14;100.00;100648.19;4857636;29;46884;-81
2022/09/16 05:35:00;;;;;;;;;9.67;9.67;;;;;15.09;100.00;100642.84;4871638;29;45458;-81
2022/09/16 05:37:26;;;;;;;;;14.00;9.67;;;;;15.08;100.00;100638.38;4873084;29;45837;-82
2022/09/16 05:39:51;;;;;;;;;10.67;10.67;;;;;15.08;100.00;100649.09;4871681;29;45550;-81
2022/09/16 05:42:16;;;;;;;;;12.00;12.00;;;;;15.03;100.00;100642.91;4873510;29;47000;-81
2022/09/16 05:44:42;;;;;;;;;14.67;13.67;;;;;15.09;100.00;100647.28;4873704;29;45421;-81
2022/09/16 05:47:07;;;;;;;;;10.67;10.67;;;;;15.10;100.00;100646.41;4872110;29;45371;-81
2022/09/16 05:49:33;;;;;;;;;12.67;12.00;;;;;15.13;100.00;100654.44;4872096;29;45485;-81
2022/09/16 05:51:58;;;;;;;;;14.67;11.33;;;;;15.11;100.00;100642.84;4873263;29;45005;-81
2022/09/16 05:54:24;;;;;;;;;11.33;11.33;;;;;15.15;100.00;100644.63;4872599;29;45353;-81
2022/09/16 05:56:50;;;;;;;;;5.67;4.00;;;;;15.17;100.00;100642.81;4872771;29;45400;-81
2022/09/16 05:59:16;;;;;;;;;10.00;10.00;;;;;15.25;100.00;100650.78;4877700;29;45347;-82
2022/09/16 06:01:43;;;;;;;;;10.33;9.67;;;;;15.27;100.00;100651.66;4861603;29;47257;-82
2022/09/16 06:04:11;;;;;;;;;9.00;9.00;;;;;15.33;100.00;100644.47;4876451;29;45433;-83
2022/09/16 06:06:39;;;;;;;;;15.00;14.00;;;;;15.40;100.00;100648.00;4874238;29;45882;-82
2022/09/16 06:09:12;;;;;;;;;12.67;12.00;;;;;15.49;100.00;100655.06;4874108;29;45403;-82
2022/09/16 06:11:44;;;;;;;;;12.67;12.67;;;;;15.54;100.00;100662.19;4872887;29;46276;-83
2022/09/16 06:14:11;;;;;;;;;14.00;14.00;;;;;15.53;100.00;100664.88;4873298;29;45493;-82
2022/09/16 06:16:37;;;;;;;;;15.00;13.33;;;;;15.53;100.00;100660.41;4870522;29;44840;-82
2022/09/16 06:19:05;;;;;;;;;16.33;14.33;;;;;15.46;100.00;100660.47;4871928;29;45664;-82
2022/09/16 06:21:31;;;;;;;;;9.33;9.33;;;;;15.50;100.00;100668.47;4872083;29;46627;-82
2022/09/16 06:23:57;;;;;;;;;12.67;11.67;;;;;15.55;100.00;100661.31;4871767;29;45585;-83
2022/09/16 06:26:24;;;;;;;;;11.33;11.33;;;;;15.70;100.00;100659.41;4871324;29;45462;-82
2022/09/16 06:28:51;;;;;;;;;9.67;9.67;;;;;15.85;100.00;100666.44;4872792;29;45525;-82
2022/09/16 06:31:25;;;;;;;;;11.33;9.67;;;;;15.84;100.00;100654.84;4873745;29;45480;-82
2022/09/16 06:33:51;;;;;;;;;13.00;12.00;;;;;15.93;100.00;100654.72;4856522;29;45418;-81
2022/09/16 06:36:20;;;;;;;;;16.00;16.00;;;;;16.05;100.00;100653.72;4841745;29;44793;-82
2022/09/16 06:38:47;;;;;;;;;14.00;13.33;;;;;16.03;100.00;100662.69;4871688;29;45385;-82
2022/09/16 06:41:14;;;;;;;;;13.00;13.00;;;;;16.02;100.00;100666.28;4872649;29;45503;-83
2022/09/16 06:43:42;;;;;;;;;14.33;13.33;;;;;16.01;100.00;100665.41;4872184;29;44872;-83
2022/09/16 06:46:12;;;;;;;;;14.33;13.33;;;;;15.98;100.00;100670.81;4854714;29;44690;-82
2022/09/16 06:48:39;;;;;;;;;15.00;12.33;;;;;16.06;100.00;100673.38;4870971;29;45444;-81
2022/09/16 06:51:09;;;;;;;;;14.00;13.33;;;;;16.10;100.00;100676.03;4872823;29;46325;-83
2022/09/16 06:53:35;;;;;;;;;14.67;14.33;;;;;16.13;100.00;100673.31;4873136;29;45376;-82
2022/09/16 06:56:09;;;;;;;;;11.33;11.00;;;;;16.18;100.00;100666.13;4857443;29;45493;-83
2022/09/16 06:58:36;;;;;;;;;13.00;13.00;;;;;16.31;100.00;100674.03;4873218;29;44757;-83
2022/09/16 07:01:12;;;;;;;;;17.00;15.33;;;;;16.38;100.00;100683.78;4872903;29;45415;-83
2022/09/16 07:03:40;;;;;;;;;13.00;13.00;;;;;16.45;100.00;100680.16;4870989;29;45538;-81
2022/09/16 07:06:06;;;;;;;;;18.67;14.33;;;;;16.44;100.00;100669.41;4872905;29;44892;-81
2022/09/16 07:09:15;;;;;;;;;12.33;12.00;;;;;16.55;100.00;100700.63;4855595;29;45644;-82
2022/09/16 07:11:41;;;;;;;;;12.33;12.33;;;;;16.65;100.00;100695.16;4855043;29;46461;-82
2022/09/16 07:14:08;;;;;;;;;13.33;11.67;;;;;16.72;100.00;100703.09;4873691;29;45454;-83
2022/09/16 07:16:33;;;;;;;;;13.00;11.00;;;;;16.68;100.00;100697.78;4868385;29;45448;-83
2022/09/16 07:18:58;;;;;;;;;13.33;13.00;;;;;16.69;100.00;100707.63;4851170;29;45351;-83
2022/09/16 07:21:29;;;;;;;;;15.67;14.00;;;;;16.60;100.00;100714.91;4871765;29;47478;-82
2022/09/16 07:23:57;;;;;;;;;17.00;13.33;;;;;16.63;100.00;100699.66;4853187;29;45082;-84
2022/09/16 07:26:26;;;;;;;;;16.33;16.33;;;;;16.73;100.00;100699.53;4871854;29;45484;-83
2022/09/16 07:28:53;;;;;;;;;13.67;11.00;;;;;16.77;100.00;100690.50;4872058;29;45957;-82
2022/09/16 07:31:24;;;;;;;;;14.33;12.67;;;;;16.92;100.00;100705.56;4875101;29;45348;-83
2022/09/16 07:37:13;;;;;;;;;14.00;14.00;;;;;17.23;100.00;100699.81;4870938;29;45452;-81
2022/09/16 07:39:39;;;;;;;;;15.00;13.67;;;;;17.39;100.00;100708.53;4863489;29;45805;-83
2022/09/16 07:42:05;;;;;;;;;15.67;14.00;;;;;17.48;100.00;100710.22;4870839;29;45379;-81
2022/09/16 07:44:31;;;;;;;;;15.33;13.33;;;;;17.56;100.00;100703.78;4871282;29;45803;-82
2022/09/16 07:46:56;;;;;;;;;16.67;15.00;;;;;17.73;100.00;100722.38;4870376;29;45389;-82
2022/09/16 07:49:23;;;;;;;;;17.67;15.67;;;;;17.70;100.00;100719.72;4871256;29;45340;-81
2022/09/16 07:51:48;;;;;;;;;15.33;15.33;;;;;17.59;100.00;100719.91;4866115;29;46834;-82
2022/09/16 07:54:16;;;;;;;;;18.33;15.67;;;;;17.52;100.00;100720.88;4873452;29;45412;-83
2022/09/16 07:56:43;;;;;;;;;16.00;12.00;;;;;17.44;100.00;100724.59;4856870;29;45658;-84
2022/09/16 07:59:15;;;;;;;;;16.33;15.00;;;;;17.47;100.00;100719.16;4875670;29;45493;-83
2022/09/16 08:02:18;;;;;;;;;13.33;12.67;;;;;17.50;100.00;100727.22;4856876;29;46813;-83
2022/09/16 08:04:43;;;;;;;;;19.00;16.67;;;;;17.37;100.00;100724.69;4868208;29;45463;-84
2022/09/16 08:07:09;;;;;;;;;14.33;14.33;;;;;17.37;100.00;100740.81;4876267;29;44897;-84
2022/09/16 08:09:37;;;;;;;;;18.33;17.00;;;;;17.30;100.00;100743.63;4861888;29;45551;-84
2022/09/16 08:12:04;;;;;;;;;18.00;16.67;;;;;17.21;100.00;100741.94;4867085;29;46853;-82
2022/09/16 08:14:30;;;;;;;;;12.67;12.67;;;;;17.10;100.00;100738.50;4876265;29;44798;-85
2022/09/16 08:16:56;;;;;;;;;15.67;12.67;;;;;17.07;100.00;100735.88;4875511;29;45386;-84
2022/09/16 08:19:24;;;;;;;;;17.67;16.00;;;;;16.97;100.00;100727.03;4869364;29;45425;-82
2022/09/16 08:21:50;;;;;;;;;17.33;13.67;;;;;17.08;100.00;100743.00;4842124;29;45468;-83
2022/09/16 08:27:44;;;;;;;;;17.67;17.33;;;;;17.27;100.00;100749.94;4868092;29;45217;-81
2022/09/16 08:30:10;;;;;;;;;20.00;14.67;;;;;17.22;100.00;100757.16;4869149;29;45442;-84
2022/09/16 08:32:36;;;;;;;;;15.67;15.67;;;;;17.13;100.00;100752.78;4874641;29;48739;-82
2022/09/16 08:35:01;;;;;;;;;15.33;13.33;;;;;17.14;100.00;100759.06;4849328;29;45848;-82
2022/09/16 08:38:16;;;;;;;;;12.33;12.33;;;;;17.13;100.00;100758.16;4874195;29;45425;-82
2022/09/16 08:40:52;;;;;;;;;13.33;13.33;;;;;17.10;100.00;100746.56;4875155;29;46800;-85
2022/09/16 08:43:41;;;;;;;;;18.00;15.33;;;;;17.23;100.00;100758.03;4872227;29;45389;-84
2022/09/16 08:46:34;;;;;;;;;13.33;13.33;;;;;17.42;100.00;100764.94;4862517;29;45478;-83
2022/09/16 08:49:16;;;;;;;;;18.33;17.00;;;;;17.47;100.00;100767.56;4853754;29;45413;-83
2022/09/16 08:51:46;;;;;;;;;15.00;15.00;;;;;17.60;100.00;100769.19;4871316;29;44905;-84
2022/09/16 08:54:22;;;;;;;;;9.33;9.33;;;;;17.43;100.00;100722.81;4874751;29;45241;-84
2022/09/16 08:57:03;;;;;;;;;14.00;14.00;;;;;17.82;100.00;100774.25;4873186;29;44872;-82
2022/09/16 08:59:34;;;;;;;;;14.67;14.67;;;;;17.85;100.00;100756.28;4867821;29;45559;-85
2022/09/16 09:02:45;;;;;;;;;16.33;14.00;;;;;18.16;100.00;100777.34;4872300;29;45542;-85
2022/09/16 09:05:54;;;;;;;;;17.00;16.00;;;;;18.32;100.00;100775.25;4874286;29;45425;-82
2022/09/16 09:08:39;;;;;;;;;15.33;15.00;;;;;18.35;100.00;100775.19;4871357;29;45551;-83
2022/09/16 09:11:23;;;;;;;;;13.33;11.33;;;;;18.45;99.92;100784.88;4868711;29;45579;-84
2022/09/16 09:14:20;;;;;;;;;15.67;14.00;;;;;18.47;100.00;100783.06;4870364;29;45317;-85
2022/09/16 09:17:28;;;;;;;;;14.67;13.67;;;;;18.64;98.83;100788.13;4863379;29;45489;-85
2022/09/16 09:20:06;;;;;;;;;13.00;13.00;;;;;18.58;98.71;100761.31;4870744;29;45434;-84
2022/09/16 09:22:52;;;;;;;;;16.33;16.33;;;;;18.86;97.39;100787.75;4851850;29;45518;-84
2022/09/16 09:25:33;;;;;;;;;16.00;14.67;;;;;18.97;96.23;100794.72;4875754;29;45620;-83
2022/09/16 09:28:22;;;;;;;;;13.33;13.33;;;;;19.18;95.48;100782.59;4878148;29;48515;-84
2022/09/16 09:31:19;;;;;;;;;12.67;12.33;;;;;19.48;94.79;100790.97;4866950;29;45484;-82
2022/09/16 09:33:59;;;;;;;;;15.00;12.33;;;;;19.78;94.41;100786.72;4859680;29;45377;-84
2022/09/16 09:37:17;;;;;;;;;;;;;;;;;;;;;
2022/09/16 09:40:26;;;;;;;;;9.33;9.33;;;;;19.99;89.05;100787.13;4874340;29;74775;-83
2022/09/16 09:43:03;;;;;;;;;8.00;6.00;;;;;20.06;85.80;100779.81;4866145;29;45404;-83
2022/09/16 09:46:07;;;;;;;;;14.00;9.33;;;;;20.03;85.80;100753.75;4860842;29;45497;-83
2022/09/16 09:48:56;;;;;;;;;7.67;6.00;;;;;20.25;82.92;100796.41;4860143;29;45432;-83
2022/09/16 09:51:29;;;;;;;;;6.67;6.00;;;;;20.17;75.57;100786.69;4873560;29;46954;-82
2022/09/16 09:54:25;;;;;;;;;3.00;3.00;;;;;20.02;76.56;100788.88;4877326;29;44796;-83
2022/09/16 09:57:40;;;;;;;;;4.25;3.00;;;;;19.81;67.82;100783.06;4875328;29;44821;-82
2022/09/16 10:00:44;;;;;;;;;1.67;1.67;;;;;19.67;73.11;100777.94;4873477;29;45670;-84
2022/09/16 10:03:13;;;;;;;;;2.67;2.67;;;;;19.60;71.92;100749.34;4875461;29;47168;-83
2022/09/16 10:05:39;;;;;;;;;2.67;1.67;;;;;19.88;70.29;100803.59;4878174;29;44892;-83
2022/09/16 10:08:34;;;;;;;;;2.33;2.00;;;;;19.78;69.99;100792.13;4862494;29;44797;-83
2022/09/16 10:11:02;;;;;;;;;3.00;3.00;;;;;19.75;67.55;100797.63;4879981;29;44762;-84
2022/09/16 10:13:29;;;;;;;;;3.00;3.00;;;;;19.63;69.35;100780.75;4862619;29;45465;-83
2022/09/16 10:16:15;;;;;;;;;2.25;2.00;;;;;19.63;68.22;100781.63;4860818;29;44812;-84
2022/09/16 10:18:43;;;;;;;;;3.75;2.00;;;;;19.78;67.74;100794.81;4876653;29;45416;-84
2022/09/16 10:21:15;;;;;;;;;1.67;1.67;;;;;19.85;59.63;100800.97;4879161;29;44947;-84
2022/09/16 10:23:51;;;;;;;;;2.33;2.00;;;;;19.91;64.38;100792.72;4876599;29;45693;-82
2022/09/16 10:26:27;;;;;;;;;2.00;2.00;;;;;20.07;64.97;100781.56;4875445;29;44822;-82
2022/09/16 10:29:15;;;;;;;;;1.00;1.00;;;;;20.41;64.40;100781.59;4877598;29;44991;-83
2022/09/16 10:31:41;;;;;;;;;1.00;1.00;;;;;20.73;63.43;100783.47;4880131;29;45505;-83
2022/09/16 10:34:16;;;;;;;;;4.00;3.00;;;;;20.94;55.49;100784.69;4866262;29;48058;-82
2022/09/16 10:36:41;;;;;;;;;1.25;1.25;;;;;21.07;59.08;100787.06;4861103;29;44857;-82
2022/09/16 10:39:22;;;;;;;;;1.67;1.67;;;;;21.03;53.75;100777.25;4879537;29;44791;-83
2022/09/16 10:41:49;;;;;;;;;4.33;3.00;;;;;21.08;56.78;100773.47;4878055;29;45338;-83
2022/09/16 10:44:28;;;;;;;;;2.33;2.33;;;;;21.11;53.10;100762.59;4861692;29;45159;-83
2022/09/16 10:47:08;;;;;;;;;1.00;1.00;;;;;21.09;49.26;100777.97;4859158;29;44907;-82
2022/09/16 10:49:33;;;;;;;;;3.00;3.00;;;;;21.11;52.13;100794.16;4867271;29;44971;-84
2022/09/16 10:52:17;;;;;;;;;2.00;2.00;;;;;20.84;51.38;100783.16;4867968;29;45556;-83
2022/09/16 10:54:57;;;;;;;;;1.00;1.00;;;;;20.63;52.07;100797.28;4877909;29;45351;-84
2022/09/16 10:57:51;;;;;;;;;1.75;1.75;;;;;20.50;54.94;100792.16;4874112;29;45428;-84
2022/09/16 11:00:23;;;;;;;;;2.50;2.50;;;;;20.35;54.58;100769.13;4855197;29;45382;-83
2022/09/16 11:03:32;;;;;;;;;2.00;2.00;;;;;20.68;54.82;100801.66;4873471;29;45046;-82
2022/09/16 11:06:33;;;;;;;;;2.00;2.00;;;;;20.87;54.07;100791.19;4808581;29;46402;-81
2022/09/16 11:09:11;;;;;;;;;2.00;2.00;;;;;20.81;50.67;100795.91;4799583;29;45597;-82
2022/09/16 11:11:57;;;;;;;;;3.00;2.00;;;;;20.87;52.57;100790.31;4814848;29;45762;-81
2022/09/16 11:14:52;;;;;;;;;3.00;3.00;;;;;20.88;52.29;100792.97;4822835;29;45304;-82
2022/09/16 11:17:40;;;;;;;;;2.00;2.00;;;;;20.78;50.72;100791.44;4813589;29;46533;-82
2022/09/16 11:20:39;;;;;;;;;2.00;2.00;;;;;20.71;53.56;100793.44;4814810;29;44879;-81
2022/09/16 11:23:33;;;;;;;;;2.00;2.00;;;;;20.64;53.34;100799.03;4816044;29;45605;-81
2022/09/16 11:26:17;;;;;;;;;1.00;1.00;;;;;20.53;52.46;100797.47;4819455;29;45583;-82
2022/09/16 11:28:49;;;;;;;;;1.67;1.67;;;;;20.46;51.50;100797.66;4818572;29;45540;-80
2022/09/16 11:31:43;;;;;;;;;2.00;2.00;;;;;20.50;50.99;100786.78;4818014;29;45523;-82
2022/09/16 11:34:37;;;;;;;;;2.00;2.00;;;;;20.53;50.88;100797.47;4815882;29;45600;-81
2022/09/16 11:37:05;;;;;;;;;2.00;2.00;;;;;20.49;50.24;100798.50;4799861;29;45578;-79
2022/09/16 11:40:14;;;;;;;;;1.00;1.00;;;;;20.64;50.86;100801.75;4827665;29;45732;-82
2022/09/16 11:43:11;;;;;;;;;2.00;2.00;;;;;20.70;49.32;100794.38;4865285;29;45379;-82
2022/09/16 11:45:56;;;;;;;;;3.00;2.00;;;;;20.91;46.35;100803.69;4856481;29;45403;-81
2022/09/16 11:49:12;;;;;;;;;2.00;1.00;;;;;21.12;47.32;100812.13;4870839;29;45680;-82
2022/09/16 11:51:50;;;;;;;;;2.00;2.00;;;;;21.13;47.21;100797.69;4819915;29;45405;-81
2022/09/16 11:54:51;;;;;;;;;3.00;2.00;;;;;21.11;42.74;100788.75;4834359;29;45653;-83
2022/09/16 11:57:27;;;;;;;;;2.00;2.00;;;;;21.14;45.04;100794.03;4826902;29;45471;-83
2022/09/16 12:00:02;;;;;;;;;2.75;2.75;;;;;20.92;44.03;100761.31;4833749;29;45488;-83
2022/09/16 12:03:16;;;;;;;;;1.00;1.00;;;;;21.12;45.05;100795.91;4818566;29;45431;-82